Time;durP1;ratioP1;P1;durP2;ratioP2;P2;SDS_P1;SDS_P2;PMS_P1;PMS_P2;Temp;Humidity;BMP_temperature;BMP_pressure;BME280_temperature;BME280_humidity;BME280_pressure;Samples;Min_cycle;Max_cycle;Signal;HPM_P1;HPM_P2
2021/07/15 00:01:56;;;;;;;24.17;14.32;;;666.30;2432.00;;;;;;5110285;28;20457;-72
2021/07/15 00:04:22;;;;;;;28.58;14.38;;;666.30;2432.00;;;;;;5110794;28;20027;-72
2021/07/15 00:06:48;;;;;;;22.75;14.35;;;666.20;2432.00;;;;;;5110236;28;20034;-71
2021/07/15 00:09:15;;;;;;;24.25;14.75;;;666.10;2432.00;;;;;;5091523;28;20039;-71
2021/07/15 00:11:45;;;;;;;26.20;13.20;;;666.00;2432.00;;;;;;5110642;28;20028;-71
2021/07/15 00:14:12;;;;;;;24.85;15.07;;;666.00;2432.00;;;;;;5106437;28;20369;-72
2021/07/15 00:16:38;;;;;;;38.13;15.60;;;666.00;2432.00;;;;;;5091703;28;20130;-72
2021/07/15 00:19:07;;;;;;;20.50;13.35;;;665.90;2432.00;;;;;;5091695;28;20102;-71
2021/07/15 00:21:33;;;;;;;22.08;14.07;;;665.90;2432.00;;;;;;5091884;28;20047;-71
2021/07/15 00:23:59;;;;;;;23.17;14.13;;;665.90;2432.00;;;;;;5091694;28;20462;-71
2021/07/15 00:26:26;;;;;;;21.05;13.48;;;666.00;2432.00;;;;;;5092093;28;20019;-71
2021/07/15 00:28:52;;;;;;;22.77;13.20;;;666.10;2432.00;;;;;;5109422;28;20039;-71
2021/07/15 00:31:18;;;;;;;23.48;13.63;;;666.00;2432.00;;;;;;5109360;28;20038;-71
2021/07/15 00:33:48;;;;;;;20.80;14.43;;;666.00;2432.00;;;;;;5099790;28;20027;-71
2021/07/15 00:36:14;;;;;;;25.13;14.43;;;665.90;2432.00;;;;;;5113561;28;20037;-72
2021/07/15 00:38:40;;;;;;;27.92;16.13;;;665.70;2432.00;;;;;;5096123;28;20020;-72
2021/07/15 00:41:06;;;;;;;25.52;14.18;;;640.90;2432.00;;;;;;5094601;28;20024;-72
2021/07/15 00:43:32;;;;;;;27.17;15.23;;;640.80;2432.00;;;;;;5113994;28;20095;-71
2021/07/15 00:45:58;;;;;;;21.35;14.38;;;640.70;2432.00;;;;;;5113196;28;20161;-71
2021/07/15 00:48:24;;;;;;;24.35;14.52;;;640.70;2432.00;;;;;;5114197;28;20038;-71
2021/07/15 00:50:51;;;;;;;28.65;15.73;;;640.70;2432.00;;;;;;5094647;28;20047;-72
2021/07/15 00:53:17;;;;;;;20.60;14.68;;;640.50;2432.00;;;;;;5114250;28;20119;-72
2021/07/15 00:55:45;;;;;;;20.05;16.58;;;640.50;2432.00;;;;;;5113625;28;20028;-72
2021/07/15 00:58:14;;;;;;;25.17;15.50;;;640.50;2432.00;;;;;;5113178;28;20049;-72
2021/07/15 01:00:43;;;;;;;22.45;15.00;;;640.50;2432.00;;;;;;5113379;28;20019;-72
2021/07/15 01:03:09;;;;;;;17.30;14.40;;;640.60;2432.00;;;;;;5113315;28;20019;-72
2021/07/15 01:05:41;;;;;;;21.88;15.35;;;640.70;2432.00;;;;;;5113531;28;20027;-72
2021/07/15 01:08:08;;;;;;;19.75;14.13;;;640.80;2432.00;;;;;;5095252;28;20112;-71
2021/07/15 01:10:40;;;;;;;23.48;15.50;;;640.80;2432.00;;;;;;5113420;28;20035;-72
2021/07/15 01:13:37;;;;;;;22.25;14.48;;;640.80;2432.00;;;;;;5095371;28;20419;-72
2021/07/15 01:16:18;;;;;;;23.40;14.88;;;640.80;2432.00;;;;;;5106254;28;20114;-71
2021/07/15 01:18:51;;;;;;;23.77;15.02;;;640.90;2432.00;;;;;;5106120;28;20026;-72
2021/07/15 01:21:34;;;;;;;26.23;16.00;;;640.90;2432.00;;;;;;5112547;28;20038;-71
2021/07/15 01:24:06;;;;;;;22.90;14.82;;;665.60;2432.00;;;;;;5112982;28;20035;-72
2021/07/15 01:26:56;;;;;;;22.95;15.27;;;665.60;2432.00;;;;;;5113183;28;20016;-72
2021/07/15 01:29:38;;;;;;;21.30;15.60;;;640.90;2432.00;;;;;;5092567;28;20031;-71
2021/07/15 01:32:06;;;;;;;23.17;15.43;;;640.90;2432.00;;;;;;5108417;28;20032;-72
2021/07/15 01:34:34;;;;;;;19.40;15.40;;;665.60;2432.00;;;;;;5094659;28;20027;-72
2021/07/15 01:37:00;;;;;;;25.33;16.35;;;665.60;2432.00;;;;;;5113522;28;20456;-72
2021/07/15 01:39:35;;;;;;;27.13;16.73;;;640.90;2432.00;;;;;;5112533;28;20018;-72
2021/07/15 01:42:06;;;;;;;21.83;15.85;;;640.70;2432.00;;;;;;5113174;28;20095;-72
2021/07/15 01:44:32;;;;;;;23.40;16.85;;;640.50;2432.00;;;;;;5112969;28;20020;-72
2021/07/15 01:47:00;;;;;;;24.33;18.17;;;640.40;2432.00;;;;;;5112327;28;20027;-72
2021/07/15 01:49:27;;;;;;;24.65;16.58;;;640.40;2432.00;;;;;;5094684;28;20422;-72
2021/07/15 01:51:54;;;;;;;26.00;16.50;;;640.30;2432.00;;;;;;5112203;28;20067;-71
2021/07/15 01:54:21;;;;;;;28.33;17.63;;;640.30;2432.00;;;;;;5112877;28;20031;-71
2021/07/15 01:56:48;;;;;;;20.08;16.58;;;640.30;2432.00;;;;;;5109556;28;20043;-72
2021/07/15 01:59:19;;;;;;;28.40;17.95;;;640.30;2432.00;;;;;;5112681;28;20039;-72
2021/07/15 02:01:48;;;;;;;22.58;17.05;;;640.30;2432.00;;;;;;5112429;28;20095;-72
2021/07/15 02:04:14;;;;;;;27.95;16.10;;;640.40;2432.00;;;;;;5106494;28;20116;-72
2021/07/15 02:06:42;;;;;;;20.98;17.02;;;640.40;2432.00;;;;;;5112793;28;20015;-72
2021/07/15 02:09:12;;;;;;;24.42;18.08;;;640.30;2432.00;;;;;;5112375;28;20103;-72
2021/07/15 02:11:40;;;;;;;21.58;16.48;;;640.20;2432.00;;;;;;5112480;28;20011;-72
2021/07/15 02:14:09;;;;;;;28.80;18.95;;;640.20;2432.00;;;;;;5112493;28;20103;-72
2021/07/15 02:16:39;;;;;;;25.27;16.55;;;640.30;2432.00;;;;;;5112459;28;20019;-72
2021/07/15 02:19:05;;;;;;;21.05;17.63;;;640.30;2432.00;;;;;;5112501;28;20046;-72
2021/07/15 02:21:34;;;;;;;26.58;18.23;;;640.20;2432.00;;;;;;5111961;28;20389;-72
2021/07/15 02:24:02;;;;;;;23.23;18.67;;;640.10;2432.00;;;;;;5112524;28;20036;-72
2021/07/15 02:26:29;;;;;;;22.42;18.70;;;640.10;2432.00;;;;;;5111827;28;20096;-71
2021/07/15 02:28:55;;;;;;;25.15;18.92;;;640.00;2432.00;;;;;;5112450;28;20393;-72
2021/07/15 02:31:31;;;;;;;24.50;17.40;;;640.00;2432.00;;;;;;5112259;28;20420;-72
2021/07/15 02:34:01;;;;;;;22.67;17.33;;;640.10;2432.00;;;;;;5112557;28;20098;-72
2021/07/15 02:36:30;;;;;;;27.00;18.65;;;640.10;2432.00;;;;;;5112149;28;20024;-72
2021/07/15 02:38:59;;;;;;;27.15;17.60;;;640.20;2432.00;;;;;;5093785;28;20039;-72
2021/07/15 02:41:25;;;;;;;26.13;18.55;;;640.20;2432.00;;;;;;5112444;28;20011;-72
2021/07/15 02:43:51;;;;;;;24.65;17.92;;;640.10;2432.00;;;;;;5112049;28;20077;-73
2021/07/15 02:46:17;;;;;;;26.98;18.25;;;640.10;2432.00;;;;;;5109179;28;20031;-72
2021/07/15 02:48:43;;;;;;;21.23;17.27;;;640.00;2432.00;;;;;;5088564;28;20059;-72
2021/07/15 02:51:08;;;;;;;24.85;17.55;;;640.00;2432.00;;;;;;5104404;28;20470;-72
2021/07/15 02:53:36;;;;;;;25.10;18.00;;;615.30;2432.00;;;;;;5111614;28;20664;-73
2021/07/15 02:56:40;;;;;;;25.40;17.67;;;615.30;2432.00;;;;;;5093951;28;20024;-72
2021/07/15 02:59:34;;;;;;;27.30;19.42;;;640.00;2432.00;;;;;;5091244;28;20024;-72
2021/07/15 03:02:18;;;;;;;29.05;18.65;;;640.00;2432.00;;;;;;5105961;28;20089;-72
2021/07/15 03:05:00;;;;;;;24.77;17.77;;;640.00;2432.00;;;;;;5111712;28;20845;-72
2021/07/15 03:07:27;;;;;;;30.50;17.38;;;640.00;2432.00;;;;;;5090175;28;20028;-72
2021/07/15 03:09:55;;;;;;;24.60;17.90;;;640.00;2432.00;;;;;;5093820;28;20023;-72
2021/07/15 03:12:23;;;;;;;20.15;16.20;;;615.30;2432.00;;;;;;5092831;28;20035;-72
2021/07/15 03:14:52;;;;;;;32.58;16.55;;;640.00;2432.00;;;;;;5093386;28;20041;-72
2021/07/15 03:17:24;;;;;;;23.00;17.98;;;640.00;2432.00;;;;;;5110874;28;20035;-71
2021/07/15 03:19:52;;;;;;;23.45;16.05;;;640.00;2432.00;;;;;;5093006;28;20028;-72
2021/07/15 03:22:19;;;;;;;25.30;16.92;;;615.30;2432.00;;;;;;5084535;28;20413;-72
2021/07/15 03:24:53;;;;;;;24.60;17.92;;;615.30;2432.00;;;;;;5098404;28;20077;-71
2021/07/15 03:27:20;;;;;;;23.60;15.93;;;615.30;2432.00;;;;;;5109805;28;20031;-70
2021/07/15 03:29:48;;;;;;;28.33;18.35;;;615.30;2432.00;;;;;;5109686;28;20020;-70
2021/07/15 03:32:14;;;;;;;25.02;16.40;;;615.30;2432.00;;;;;;5109849;28;20028;-70
2021/07/15 03:34:41;;;;;;;27.38;16.25;;;615.30;2432.00;;;;;;5109254;28;20031;-71
2021/07/15 03:37:09;;;;;;;25.40;16.13;;;615.10;2432.00;;;;;;5109244;28;20107;-71
2021/07/15 03:39:36;;;;;;;24.80;15.90;;;615.10;2432.00;;;;;;5110064;28;20034;-71
2021/07/15 03:42:03;;;;;;;30.52;16.20;;;615.10;2432.00;;;;;;5090494;28;20084;-71
2021/07/15 03:44:29;;;;;;;27.90;16.02;;;615.10;2432.00;;;;;;5109605;28;20016;-71
2021/07/15 03:46:55;;;;;;;30.00;16.20;;;615.00;2432.00;;;;;;5089463;28;20024;-72
2021/07/15 03:49:26;;;;;;;28.75;14.00;;;615.10;2432.00;;;;;;5110014;28;20083;-73
2021/07/15 03:51:52;;;;;;;29.00;15.63;;;615.00;2432.00;;;;;;5109631;28;20072;-72
2021/07/15 03:54:22;;;;;;;24.23;15.65;;;615.00;2432.00;;;;;;5091823;28;20064;-72
2021/07/15 03:56:49;;;;;;;24.83;15.90;;;615.20;2432.00;;;;;;5091150;28;20416;-72
2021/07/15 03:59:17;;;;;;;26.95;15.82;;;615.10;2432.00;;;;;;5109396;28;20020;-71
2021/07/15 04:01:44;;;;;;;24.83;15.40;;;615.20;2432.00;;;;;;5109799;28;20450;-72
2021/07/15 04:04:12;;;;;;;23.70;16.85;;;615.20;2432.00;;;;;;5109268;28;20028;-72
2021/07/15 04:06:40;;;;;;;22.23;15.98;;;615.20;2432.00;;;;;;5110090;28;20012;-72
2021/07/15 04:09:08;;;;;;;20.73;15.27;;;615.20;2432.00;;;;;;5068154;28;20067;-73
2021/07/15 04:11:41;;;;;;;23.23;15.48;;;615.20;2432.00;;;;;;5110195;28;20023;-73
2021/07/15 04:14:14;;;;;;;24.48;15.40;;;615.30;2432.00;;;;;;5101626;28;20135;-75
2021/07/15 04:16:44;;;;;;;30.55;17.00;;;640.00;2432.00;;;;;;5092630;28;20020;-76
2021/07/15 04:19:13;;;;;;;25.15;16.52;;;640.00;2432.00;;;;;;5107614;28;20091;-75
2021/07/15 04:21:40;;;;;;;26.60;15.32;;;640.10;2432.00;;;;;;5079286;28;20023;-75
2021/07/15 04:24:07;;;;;;;32.88;16.05;;;640.20;2432.00;;;;;;5078293;28;20030;-76
2021/07/15 04:26:33;;;;;;;21.77;15.55;;;640.20;2432.00;;;;;;5110886;28;20378;-75
2021/07/15 04:29:01;;;;;;;27.08;15.20;;;640.20;2432.00;;;;;;5103019;28;20024;-75
2021/07/15 04:31:34;;;;;;;27.52;16.05;;;640.30;2432.00;;;;;;5105084;28;20028;-75
2021/07/15 04:34:02;;;;;;;19.42;15.55;;;640.40;2432.00;;;;;;5092510;28;20035;-74
2021/07/15 04:36:30;;;;;;;24.90;16.25;;;640.50;2432.00;;;;;;5111265;28;20038;-74
2021/07/15 04:38:58;;;;;;;23.27;14.07;;;640.40;2432.00;;;;;;5110535;28;20031;-74
2021/07/15 04:41:25;;;;;;;23.70;14.88;;;640.50;2432.00;;;;;;5092956;28;20050;-74
2021/07/15 04:43:52;;;;;;;20.48;14.18;;;640.60;2432.00;;;;;;5109531;28;20020;-74
2021/07/15 04:46:20;;;;;;;34.03;15.32;;;640.90;2432.00;;;;;;5111201;28;20054;-74
2021/07/15 04:48:47;;;;;;;25.33;15.68;;;665.60;2432.00;;;;;;5092138;28;20093;-74
2021/07/15 04:51:16;;;;;;;20.85;14.60;;;665.60;2432.00;;;;;;5110046;28;20127;-74
2021/07/15 05:03:52;;;;;;;25.08;15.98;;;666.20;2432.00;;;;;;5103031;28;20094;-74
2021/07/15 05:06:19;;;;;;;24.50;14.90;;;666.30;2432.00;;;;;;5089036;28;20043;-74
2021/07/15 05:08:45;;;;;;;21.92;15.57;;;666.40;2432.00;;;;;;5093095;28;20032;-74
2021/07/15 05:11:12;;;;;;;20.45;16.40;;;666.40;2432.00;;;;;;5111758;28;20028;-73
2021/07/15 05:13:38;;;;;;;20.73;14.23;;;691.20;2432.00;;;;;;5111348;28;20024;-74
2021/07/15 05:16:04;;;;;;;25.35;14.57;;;691.40;2432.00;;;;;;5092027;28;20091;-74
2021/07/15 05:18:30;;;;;;;26.52;14.82;;;691.40;2432.00;;;;;;5111052;28;20146;-74
2021/07/15 05:20:56;;;;;;;22.23;12.95;;;691.60;2432.00;;;;;;5105521;28;20581;-74
2021/07/15 05:23:22;;;;;;;20.63;13.98;;;691.70;2432.00;;;;;;5095148;28;20099;-74
2021/07/15 05:25:50;;;;;;;18.92;11.95;;;691.80;2432.00;;;;;;5104472;28;20111;-73
2021/07/15 05:28:16;;;;;;;26.10;13.95;;;691.90;2432.00;;;;;;5106176;28;20031;-73
2021/07/15 05:30:41;;;;;;;21.23;13.55;;;692.10;2432.00;;;;;;5104940;28;20016;-74
2021/07/15 05:33:07;;;;;;;30.60;15.98;;;716.90;2432.00;;;;;;5089475;28;20036;-74
2021/07/15 05:35:33;;;;;;;25.40;13.85;;;717.00;2432.00;;;;;;5110836;28;20023;-74
2021/07/15 05:37:59;;;;;;;24.42;14.68;;;717.00;2432.00;;;;;;5108540;28;20128;-74
2021/07/15 05:40:25;;;;;;;18.75;12.93;;;716.90;2432.00;;;;;;5102122;28;20020;-73
2021/07/15 05:42:51;;;;;;;20.90;13.73;;;716.80;2432.00;;;;;;5089950;28;20043;-73
2021/07/15 05:45:17;;;;;;;21.38;13.55;;;717.00;2432.00;;;;;;5105509;28;20393;-74
2021/07/15 05:47:42;;;;;;;15.20;11.65;;;717.10;2432.00;;;;;;5089268;28;20122;-74
2021/07/15 05:50:09;;;;;;;16.80;10.98;;;717.20;2432.00;;;;;;5105669;28;20031;-73
2021/07/15 05:52:35;;;;;;;18.65;11.63;;;717.00;2432.00;;;;;;5105814;28;20134;-74
2021/07/15 05:55:01;;;;;;;21.48;13.25;;;717.30;2432.00;;;;;;5103227;28;20514;-74
2021/07/15 05:57:27;;;;;;;13.98;10.93;;;717.10;2432.00;;;;;;5105885;28;20034;-73
2021/07/15 05:59:53;;;;;;;15.45;10.70;;;717.20;2432.00;;;;;;5112551;28;20019;-73
2021/07/15 06:02:19;;;;;;;21.73;11.45;;;717.30;2432.00;;;;;;5106752;28;20096;-73
2021/07/15 06:04:44;;;;;;;16.60;9.52;;;717.30;2432.00;;;;;;5114226;28;20759;-74
2021/07/15 06:07:10;;;;;;;14.40;7.13;;;717.30;2406.40;;;;;;5113920;28;20028;-74
2021/07/15 06:09:36;;;;;;;12.55;7.75;;;717.30;2278.40;;;;;;5099630;28;20028;-73
2021/07/15 06:12:02;;;;;;;18.05;8.25;;;717.40;2278.40;;;;;;5114625;28;20032;-73
2021/07/15 06:14:27;;;;;;;10.45;6.65;;;717.50;2278.40;;;;;;5100147;28;20505;-73
2021/07/15 06:16:53;;;;;;;13.18;7.00;;;717.60;2252.80;;;;;;5081305;28;20123;-73
2021/07/15 06:19:19;;;;;;;11.70;7.38;;;717.70;2227.20;;;;;;5113543;28;20063;-73
2021/07/15 06:21:45;;;;;;;14.95;6.60;;;717.70;2201.60;;;;;;5112590;28;20034;-73
2021/07/15 06:24:10;;;;;;;8.70;5.28;;;742.40;2201.60;;;;;;5113306;28;20031;-73
2021/07/15 06:26:37;;;;;;;10.25;5.35;;;742.60;2176.00;;;;;;5111187;28;20035;-74
2021/07/15 06:29:04;;;;;;;9.93;5.63;;;742.60;2150.40;;;;;;5106749;28;20036;-74
2021/07/15 06:31:31;;;;;;;10.45;4.75;;;742.90;2073.60;;;;;;5102296;28;20035;-75
2021/07/15 06:33:56;;;;;;;9.07;5.60;;;742.90;2099.20;;;;;;5082668;28;20393;-74
2021/07/15 06:36:22;;;;;;;7.53;3.78;;;743.10;2048.00;;;;;;5104503;28;20024;-75
2021/07/15 06:38:48;;;;;;;12.45;4.82;;;743.10;2022.40;;;;;;5105638;28;20023;-74
2021/07/15 06:41:16;;;;;;;5.45;4.50;;;743.20;1996.80;;;;;;5086449;28;20034;-74
2021/07/15 06:43:42;;;;;;;14.18;5.20;;;768.00;1945.60;;;;;;5108885;28;20016;-73
2021/07/15 06:46:08;;;;;;;4.75;3.33;;;768.00;1920.00;;;;;;5105565;28;20034;-73
2021/07/15 06:48:34;;;;;;;9.57;5.30;;;768.10;1894.40;;;;;;5107498;28;20089;-74
2021/07/15 06:51:00;;;;;;;11.95;6.53;;;768.20;1843.20;;;;;;5106668;28;20391;-75
2021/07/15 06:53:26;;;;;;;12.23;3.90;;;768.20;1843.20;;;;;;5113520;28;20044;-74
2021/07/15 06:55:51;;;;;;;4.97;2.70;;;768.30;1817.60;;;;;;5093804;28;20097;-74
2021/07/15 06:58:17;;;;;;;4.82;2.67;;;768.40;1740.80;;;;;;5113704;28;20027;-75
2021/07/15 07:00:43;;;;;;;5.50;3.67;;;768.50;1766.40;;;;;;5107362;28;20016;-75
2021/07/15 07:03:12;;;;;;;9.02;3.10;;;768.70;1740.80;;;;;;5092885;28;20056;-75
2021/07/15 07:05:39;;;;;;;8.10;2.90;;;768.70;1715.20;;;;;;5093122;28;20023;-75
2021/07/15 07:08:05;;;;;;;7.03;3.50;;;768.80;1689.60;;;;;;5092731;28;20036;-75
2021/07/15 07:10:31;;;;;;;6.47;3.05;;;768.90;1715.20;;;;;;5093067;28;20018;-74
2021/07/15 07:12:57;;;;;;;9.82;3.40;;;793.60;1740.80;;;;;;5084195;28;20114;-75
2021/07/15 07:15:22;;;;;;;10.88;3.75;;;793.70;1715.20;;;;;;5088679;28;20119;-75
2021/07/15 07:17:48;;;;;;;6.22;3.00;;;793.70;1715.20;;;;;;5086063;28;20425;-75
2021/07/15 07:20:15;;;;;;;9.80;4.57;;;793.60;1715.20;;;;;;5088664;28;20512;-75
2021/07/15 07:22:44;;;;;;;7.35;3.47;;;793.70;1715.20;;;;;;5088407;28;20016;-75
2021/07/15 07:25:11;;;;;;;9.25;4.22;;;794.00;1689.60;;;;;;5088316;28;20034;-75
2021/07/15 07:27:38;;;;;;;9.20;3.35;;;794.10;1689.60;;;;;;5093827;28;20058;-75
2021/07/15 07:30:05;;;;;;;11.52;3.42;;;794.10;1689.60;;;;;;5104700;28;20031;-75
2021/07/15 07:32:31;;;;;;;9.88;4.72;;;794.30;1664.00;;;;;;5091744;28;20038;-75
2021/07/15 07:34:57;;;;;;;5.97;3.63;;;794.50;1664.00;;;;;;5094350;28;20035;-75
2021/07/15 07:37:23;;;;;;;9.18;3.58;;;819.20;1664.00;;;;;;5112901;28;20022;-75
2021/07/15 07:39:49;;;;;;;6.03;3.58;;;819.40;1638.40;;;;;;5112101;28;20038;-75
2021/07/15 07:42:14;;;;;;;6.85;3.20;;;819.40;1612.80;;;;;;5094447;28;20072;-75
2021/07/15 07:44:40;;;;;;;6.85;3.72;;;819.30;1638.40;;;;;;5111998;28;20480;-75
2021/07/15 07:47:06;;;;;;;7.47;3.67;;;819.40;1612.80;;;;;;5112874;28;20020;-75
2021/07/15 07:49:32;;;;;;;11.00;4.35;;;819.50;1561.60;;;;;;5094086;28;20420;-75
2021/07/15 07:51:57;;;;;;;7.15;2.70;;;819.60;1561.60;;;;;;5099455;28;20399;-75
2021/07/15 07:54:23;;;;;;;10.35;3.47;;;819.70;1561.60;;;;;;5092216;28;20478;-75
2021/07/15 07:56:49;;;;;;;7.18;3.38;;;820.00;1536.00;;;;;;5102374;28;20027;-76
2021/07/15 07:59:15;;;;;;;7.45;3.45;;;844.80;1561.60;;;;;;5077795;28;20020;-76
2021/07/15 08:01:42;;;;;;;5.95;3.05;;;844.90;1561.60;;;;;;5091445;28;20052;-75
2021/07/15 08:04:08;;;;;;;7.05;3.35;;;845.10;1536.00;;;;;;5074038;28;20081;-75
2021/07/15 08:06:35;;;;;;;8.07;2.80;;;844.90;1510.40;;;;;;5098479;28;20549;-75
2021/07/15 08:09:06;;;;;;;5.95;2.70;;;845.20;1510.40;;;;;;5094056;28;20052;-75
2021/07/15 08:11:32;;;;;;;7.32;3.10;;;845.30;1484.80;;;;;;5091868;28;20016;-75
2021/07/15 08:13:58;;;;;;;7.90;3.47;;;845.40;1484.80;;;;;;5106966;28;20023;-76
2021/07/15 08:16:24;;;;;;;7.20;3.38;;;870.40;1484.80;;;;;;5097530;28;20478;-75
2021/07/15 08:18:49;;;;;;;7.05;3.22;;;870.60;1459.20;;;;;;5111383;28;20020;-75
2021/07/15 08:21:24;;;;;;;11.98;3.35;;;870.40;1433.60;;;;;;5112231;28;20431;-75
2021/07/15 08:23:51;;;;;;;7.13;3.13;;;870.50;1459.20;;;;;;5111970;28;20386;-75
2021/07/15 08:26:18;;;;;;;7.13;3.10;;;870.80;1433.60;;;;;;5112275;28;20406;-75
2021/07/15 08:28:44;;;;;;;7.25;3.65;;;870.60;1433.60;;;;;;5111949;28;20035;-75
2021/07/15 08:31:10;;;;;;;8.30;3.10;;;871.00;1382.40;;;;;;5112161;28;20028;-75
2021/07/15 08:33:36;;;;;;;6.03;2.92;;;870.90;1382.40;;;;;;5111625;28;20046;-75
2021/07/15 08:36:02;;;;;;;5.50;2.83;;;871.10;1408.00;;;;;;5093309;28;20486;-75
2021/07/15 08:38:28;;;;;;;8.75;2.90;;;871.10;1408.00;;;;;;5112060;28;20019;-75
2021/07/15 08:40:54;;;;;;;9.95;3.78;;;870.90;1382.40;;;;;;5093074;28;20027;-76
2021/07/15 08:43:21;;;;;;;9.85;3.65;;;871.00;1382.40;;;;;;5111742;28;20024;-75
2021/07/15 08:45:49;;;;;;;6.05;3.67;;;871.20;1408.00;;;;;;5111908;28;20020;-75
2021/07/15 08:48:16;;;;;;;7.50;4.20;;;896.00;1382.40;;;;;;5112221;28;20030;-75
2021/07/15 08:50:41;;;;;;;6.35;2.85;;;896.20;1382.40;;;;;;5109397;28;20103;-76
2021/07/15 08:53:07;;;;;;;11.85;3.28;;;896.50;1356.80;;;;;;5073801;28;20128;-75
2021/07/15 08:58:17;;;;;;;8.50;3.42;;;896.50;1305.60;;;;;;5095269;28;20020;-75
2021/07/15 09:00:44;;;;;;;7.10;3.22;;;896.50;1331.20;;;;;;5095838;28;20097;-75
2021/07/15 09:03:11;;;;;;;6.43;3.05;;;896.50;1331.20;;;;;;5112774;28;20016;-75
2021/07/15 09:05:38;;;;;;;7.22;3.17;;;896.60;1331.20;;;;;;5111436;28;20130;-75
2021/07/15 09:08:05;;;;;;;7.15;4.10;;;896.90;1305.60;;;;;;5113481;28;20103;-75
2021/07/15 09:10:31;;;;;;;7.63;3.85;;;922.00;1331.20;;;;;;5115528;28;20027;-75
2021/07/15 09:12:58;;;;;;;8.32;3.55;;;921.70;1331.20;;;;;;5114527;28;20148;-75
2021/07/15 09:15:24;;;;;;;11.15;4.30;;;922.00;1280.00;;;;;;5114906;28;20026;-75
2021/07/15 09:17:50;;;;;;;8.75;3.33;;;922.10;1280.00;;;;;;5114619;28;20024;-74
2021/07/15 09:20:22;;;;;;;7.40;3.10;;;922.00;1280.00;;;;;;5101343;28;20011;-74
2021/07/15 09:23:00;;;;;;;9.50;4.47;;;921.90;1254.40;;;;;;5112820;28;20028;-75
2021/07/15 09:25:49;;;;;;;8.75;3.22;;;922.00;1280.00;;;;;;5102224;28;20035;-75
2021/07/15 09:28:23;;;;;;;7.53;3.15;;;922.10;1254.40;;;;;;5114764;28;20500;-75
2021/07/15 09:30:49;;;;;;;7.95;2.90;;;921.90;1280.00;;;;;;5115318;28;20027;-75
2021/07/15 09:33:15;;;;;;;10.43;3.55;;;922.10;1280.00;;;;;;5113363;28;20036;-75
2021/07/15 09:35:46;;;;;;;11.05;4.40;;;922.40;1254.40;;;;;;5113655;28;20031;-75
2021/07/15 09:38:18;;;;;;;6.70;3.30;;;947.50;1228.80;;;;;;5114744;28;20054;-75
2021/07/15 09:40:46;;;;;;;9.20;4.05;;;947.70;1228.80;;;;;;5102484;28;20115;-75
2021/07/15 09:43:21;;;;;;;8.00;4.07;;;947.90;1228.80;;;;;;5094420;28;20062;-76
2021/07/15 09:45:50;;;;;;;5.75;3.50;;;947.90;1203.20;;;;;;5106259;28;20030;-75
2021/07/15 09:48:21;;;;;;;7.10;3.95;;;972.90;1228.80;;;;;;5101299;28;20031;-75
2021/07/15 09:50:49;;;;;;;8.55;3.60;;;972.90;1228.80;;;;;;5103592;28;20015;-75
2021/07/15 09:53:30;;;;;;;6.88;3.80;;;973.20;1228.80;;;;;;5084938;28;20406;-75
2021/07/15 09:56:16;;;;;;;9.70;4.53;;;973.40;1203.20;;;;;;5100941;28;20020;-75
2021/07/15 09:58:43;;;;;;;8.77;3.90;;;973.30;1203.20;;;;;;5105890;28;20051;-75
2021/07/15 10:01:12;;;;;;;10.70;4.05;;;973.10;1203.20;;;;;;5104674;28;20081;-75
2021/07/15 10:03:42;;;;;;;8.32;3.70;;;973.30;1203.20;;;;;;5103066;28;20102;-75
2021/07/15 10:06:09;;;;;;;5.68;3.33;;;973.40;1152.00;;;;;;5103313;28;20500;-75
2021/07/15 10:08:38;;;;;;;8.27;4.38;;;973.60;1152.00;;;;;;5103605;28;20039;-76
2021/07/15 10:11:17;;;;;;;8.50;4.28;;;998.90;1152.00;;;;;;5105656;28;20031;-75
2021/07/15 10:13:46;;;;;;;6.57;3.67;;;998.90;1152.00;;;;;;5086634;28;20036;-75
2021/07/15 10:16:11;;;;;;;11.20;3.35;;;998.80;1152.00;;;;;;5105315;28;20104;-75
2021/07/15 10:18:44;;;;;;;9.57;3.80;;;998.90;1152.00;;;;;;5103289;28;20094;-75
2021/07/15 10:21:14;;;;;;;9.60;4.45;;;999.00;1126.40;;;;;;5087619;28;20051;-75
2021/07/15 10:23:45;;;;;;;8.13;4.38;;;998.90;1152.00;;;;;;5103864;28;20111;-75
2021/07/15 10:26:13;;;;;;;6.00;4.13;;;999.20;1152.00;;;;;;5104842;28;20048;-75
2021/07/15 10:28:43;;;;;;;8.10;4.88;;;998.70;1152.00;;;;;;5082191;28;20027;-76
2021/07/15 10:31:10;;;;;;;11.85;5.07;;;998.60;1177.60;;;;;;5106893;28;20034;-75
2021/07/15 10:33:35;;;;;;;10.02;4.70;;;998.70;1152.00;;;;;;5086895;28;20039;-75
2021/07/15 10:36:04;;;;;;;12.50;4.65;;;1024.00;1126.40;;;;;;5101668;28;20034;-77
2021/07/15 10:38:36;;;;;;;9.00;4.40;;;1024.10;1126.40;;;;;;5086259;28;20020;-76
2021/07/15 10:41:02;;;;;;;7.65;4.95;;;1024.10;1100.80;;;;;;5111842;28;20016;-77
2021/07/15 10:43:29;;;;;;;12.63;4.20;;;1024.40;1100.80;;;;;;5106983;28;20085;-76
2021/07/15 10:45:58;;;;;;;6.82;4.38;;;1024.50;1075.20;;;;;;5099403;28;20028;-75
2021/07/15 10:48:25;;;;;;;6.97;3.95;;;1049.60;1075.20;;;;;;5104618;28;20475;-76
2021/07/15 10:50:51;;;;;;;12.45;5.30;;;1024.80;1049.60;;;;;;5105360;28;20110;-76
2021/07/15 10:53:17;;;;;;;8.13;5.00;;;1024.60;1075.20;;;;;;5104602;28;20110;-75
2021/07/15 10:55:44;;;;;;;13.02;5.50;;;1024.90;1075.20;;;;;;5105629;28;20033;-75
2021/07/15 10:58:11;;;;;;;9.00;4.35;;;1024.80;1075.20;;;;;;5101144;28;20470;-76
2021/07/15 11:00:37;;;;;;;10.25;5.57;;;1024.50;1075.20;;;;;;5107020;28;20526;-76
2021/07/15 11:03:29;;;;;;;12.27;6.75;;;1024.70;1075.20;;;;;;5100021;28;20028;-76
2021/07/15 11:05:58;;;;;;;8.20;4.13;;;1024.70;1049.60;;;;;;5080225;28;20503;-76
2021/07/15 11:08:49;;;;;;;7.82;5.90;;;1050.30;1049.60;;;;;;5088053;28;20363;-75
2021/07/15 11:11:30;;;;;;;11.63;7.18;;;1075.60;1024.00;;;;;;5106266;28;20028;-75
2021/07/15 11:13:56;;;;;;;8.95;4.95;;;1100.80;1024.00;;;;;;5106594;28;20032;-75
2021/07/15 11:16:49;;;;;;;16.92;5.97;;;1101.60;998.40;;;;;;5085502;28;20039;-75
2021/07/15 11:20:00;;;;;;;10.25;6.03;;;1076.10;998.40;;;;;;5109395;28;20016;-76
2021/07/15 11:22:50;;;;;;;9.50;5.38;;;1100.90;1024.00;;;;;;5069738;28;20474;-76
2021/07/15 11:25:17;;;;;;;9.25;5.55;;;1075.50;1024.00;;;;;;5103489;28;20031;-75
2021/07/15 11:27:47;;;;;;;9.52;5.97;;;1075.30;1024.00;;;;;;5087172;28;20024;-75
2021/07/15 11:30:24;;;;;;;10.68;5.38;;;1075.20;1049.60;;;;;;5109051;28;20020;-75
2021/07/15 11:32:50;;;;;;;10.50;5.93;;;1075.60;1024.00;;;;;;5105585;28;20027;-76
2021/07/15 11:35:27;;;;;;;13.20;8.43;;;1075.70;1024.00;;;;;;5102583;28;20032;-76
2021/07/15 11:38:08;;;;;;;12.07;7.03;;;1075.20;1049.60;;;;;;5087684;28;20020;-76
2021/07/15 11:40:37;;;;;;;10.23;6.00;;;1050.40;1049.60;;;;;;5097346;28;20026;-75
2021/07/15 11:43:26;;;;;;;12.15;6.80;;;1050.20;1049.60;;;;;;5086172;28;20640;-74
2021/07/15 11:46:08;;;;;;;8.40;5.18;;;1050.30;1024.00;;;;;;5085336;28;20437;-74
2021/07/15 11:48:51;;;;;;;11.85;5.95;;;1075.20;1024.00;;;;;;5099832;28;20419;-74
2021/07/15 11:51:36;;;;;;;15.32;6.97;;;1075.30;1024.00;;;;;;5098815;28;20043;-75
2021/07/15 11:54:19;;;;;;;12.77;7.03;;;1075.30;1024.00;;;;;;5104664;28;20027;-75
2021/07/15 11:56:51;;;;;;;19.83;6.70;;;1100.90;1024.00;;;;;;5111925;28;20403;-75
2021/07/15 11:59:57;;;;;;;9.77;7.15;;;1101.70;998.40;;;;;;5104233;28;20043;-75
2021/07/15 12:02:42;;;;;;;14.80;6.93;;;1126.60;998.40;;;;;;5089696;28;20562;-76
2021/07/15 12:05:12;;;;;;;10.05;6.20;;;1127.30;998.40;;;;;;5083708;28;20156;-76
2021/07/15 12:07:39;;;;;;;14.68;6.57;;;1101.70;998.40;;;;;;5102011;28;20016;-76
2021/07/15 12:10:12;;;;;;;16.80;5.03;;;1101.10;972.80;;;;;;5085552;28;20027;-76
2021/07/15 12:12:40;;;;;;;8.27;4.75;;;1100.80;998.40;;;;;;5086244;28;20043;-76
2021/07/15 12:15:14;;;;;;;10.30;7.53;;;1100.90;972.80;;;;;;5083437;28;20095;-76
2021/07/15 12:17:41;;;;;;;16.85;7.07;;;1100.80;998.40;;;;;;5107745;28;20386;-76
2021/07/15 12:20:07;;;;;;;11.10;6.18;;;1075.90;998.40;;;;;;5102996;28;20387;-76
2021/07/15 12:22:49;;;;;;;11.15;6.68;;;1075.30;1024.00;;;;;;5104165;28;20023;-75
2021/07/15 12:25:24;;;;;;;11.30;6.47;;;1075.40;1024.00;;;;;;5100526;28;20039;-75
2021/07/15 12:27:54;;;;;;;13.68;7.47;;;1076.00;972.80;;;;;;5081509;28;20032;-76
2021/07/15 12:30:21;;;;;;;10.38;6.20;;;1100.90;998.40;;;;;;5102686;28;20028;-76